Etusivu
METAR-TAF:

METAR-TAF

Lentoasemat :

Hattiesburg-Laurel Regional Airport

Hattiesburg / Laurel, Mississippi, Yhdysvallat

Leveyspiiri: 31-28N, Pituuspiiri: 089-20W, korkeus merenpinnasta: 91 m

Tämänhetkinen sää

Tämä raportti tehtiin 28 minuuttia sitten, kello 08.56 UTC
Tuuli 3 kn pohjoisesta
Lämpötila -2°C
Kosteus 80%
Ilmanpaine 1030 hPa
Näkyvyys: 16.1 km
selkeää

METAR: KPIB 200856Z AUTO 35003KT 10SM CLR M02/M05 A3041 RMK AO2 SLP300 T10221050 58006 FZRANO

Aika: 04:24 (09:24 UTC)

Sääennuste

Tämä raportti tehtiin 3 tuntia ja 58 minuuttia sitten, kello 05.26 UTC
Ennuste voimassa 20. päivästä klo 06 UTC - 21. päivään klo 06 UTC
Tuuli 4 kn pohjoisesta
Näkyvyys: 10 km
Muutamia pilviä 25000 ft:n korkeudessa

TAF: KPIB 200526Z 2006/2106 01004KT P6SM FEW250

Säähavainnot ja -ennusteet yli 4000 lentoasemalta (METAR- ja TAF-raportit).

Käytössä olevat sääasemat on merkitty karttaan keltaisilla ja punaisilla pisteillä.

Aseta hiiri pisteen päälle nähdäksesi sääaseman nimen.

Klikkaa sitten nähdäksesi säähavainnot ja -ennusteet.

Kartan vaihtaminen: klikkaa mustalla rastilla varustettuja vihreitä pisteitä, niin voit zoomata sisään; viivalla varustettua vihreää pistettä, niin voit zoomata ulos tai vihreitä nuolia, niin pääset viereisille kartoille.


METAR-TAF: